Terminal Aerodrome Forecast
Issued by NWS

Home | Current Version | Previous Version | Graphics & Text | Print | Product List | Glossary On
Versions: 1 2 3 4 5 6 7 8 9 10 11 12 13 14 15 16
000
FTUS43 KLSX 301100
TAFSUS
TAF
KSUS 301120Z 3012/3112 VRB02KT P6SM BKN250
      TEMPO 3012/3013 5SM BR
     FM301600 30005KT P6SM SCT060 BKN250
     FM310100 00000KT P6SM SCT250=

USA.gov is the U.S. government's official web portal to all federal, state and local government web resources and services.